Time;durP1;ratioP1;P1;durP2;ratioP2;P2;SDS_P1;SDS_P2;PMS_P1;PMS_P2;Temp;Humidity;BMP_temperature;BMP_pressure;BME280_temperature;BME280_humidity;BME280_pressure;Samples;Min_cycle;Max_cycle;Signal;HPM_P1;HPM_P2
2023/01/23 02:20:46;;;;;;;3.70;3.20;;;;;;;-0.34;100.00;101474.86;102365;1294;601761;-61
2023/01/23 02:23:37;;;;;;;7.60;5.00;;;;;;;0.67;100.00;101522.02;103763;1266;62495;-62
2023/01/23 02:26:07;;;;;;;9.60;5.50;;;;;;;-128.00;-1.00;-1.00;101145;1266;1015262;-60
2023/01/23 02:28:44;;;;;;;9.60;5.90;;;;;;;-128.00;-1.00;-1.00;101139;1264;1013394;-60
2023/01/23 02:31:13;;;;;;;7.50;5.50;;;;;;;-128.00;-1.00;-1.00;101025;1264;1012818;-62
2023/01/23 02:33:51;;;;;;;8.10;6.20;;;;;;;-128.00;-1.00;-1.00;100961;1263;1013740;-61
2023/01/23 02:36:20;;;;;;;7.00;5.00;;;;;;;-128.00;-1.00;-1.00;101439;1263;1011355;-61
2023/01/23 02:39:07;;;;;;;7.80;5.40;;;;;;;-128.00;-1.00;-1.00;101636;1263;1011622;-61
2023/01/23 02:41:40;;;;;;;6.90;5.00;;;;;;;-128.00;-1.00;-1.00;101469;1263;1014810;-61
2023/01/23 02:44:15;;;;;;;8.80;5.80;;;;;;;-128.00;-1.00;-1.00;101537;1262;1014562;-62
2023/01/23 02:46:43;;;;;;;9.30;5.90;;;;;;;-128.00;-1.00;-1.00;101564;1261;1012628;-63
2023/01/23 02:49:11;;;;;;;6.90;5.60;;;;;;;-128.00;-1.00;-1.00;101766;1251;1004507;-61
2023/01/23 02:51:38;;;;;;;8.10;5.50;;;;;;;-128.00;-1.00;-1.00;101927;1251;1005471;-61
2023/01/23 02:54:06;;;;;;;6.80;5.50;;;;;;;-128.00;-1.00;-1.00;101853;1257;1003932;-61
2023/01/23 02:56:33;;;;;;;8.10;6.10;;;;;;;-128.00;-1.00;-1.00;102030;1256;1004114;-62
2023/01/23 03:01:46;;;;;;;7.10;5.20;;;;;;;-128.00;-1.00;-1.00;102099;1251;1010394;-61
2023/01/23 03:04:14;;;;;;;9.40;6.00;;;;;;;-128.00;-1.00;-1.00;101909;1251;1004816;-63
2023/01/23 03:06:41;;;;;;;7.80;5.70;;;;;;;-128.00;-1.00;-1.00;101993;1250;1003852;-61
2023/01/23 03:09:10;;;;;;;7.80;5.20;;;;;;;-128.00;-1.00;-1.00;101789;1250;1002668;-61
2023/01/23 03:11:38;;;;;;;8.60;5.80;;;;;;;-128.00;-1.00;-1.00;102079;1251;1012951;-61
2023/01/23 03:14:08;;;;;;;8.50;5.60;;;;;;;-128.00;-1.00;-1.00;101903;1256;1003179;-61
2023/01/23 03:16:35;;;;;;;8.10;5.90;;;;;;;-128.00;-1.00;-1.00;101898;1253;1011439;-61
2023/01/23 03:19:07;;;;;;;8.90;5.50;;;;;;;-128.00;-1.00;-1.00;101846;1253;1013699;-61
2023/01/23 03:21:35;;;;;;;6.70;5.40;;;;;;;-128.00;-1.00;-1.00;102038;1253;1013321;-61
2023/01/23 03:24:04;;;;;;;8.60;6.10;;;;;;;-128.00;-1.00;-1.00;101831;1257;1013738;-60
2023/01/23 03:26:31;;;;;;;7.40;5.90;;;;;;;-128.00;-1.00;-1.00;101850;1252;1010024;-60
2023/01/23 03:31:44;;;;;;;8.90;5.60;;;;;;;-128.00;-1.00;-1.00;101858;1257;1013675;-60
2023/01/23 03:34:11;;;;;;;8.80;6.10;;;;;;;-128.00;-1.00;-1.00;102062;1251;1003390;-62
2023/01/23 03:36:40;;;;;;;8.30;5.60;;;;;;;-128.00;-1.00;-1.00;101907;1270;1002728;-61
2023/01/23 03:41:53;;;;;;;8.20;5.90;;;;;;;-128.00;-1.00;-1.00;101962;1252;1010575;-60
2023/01/23 03:44:21;;;;;;;5.50;4.50;;;;;;;-128.00;-1.00;-1.00;101908;1253;1003891;-60
2023/01/23 03:46:49;;;;;;;7.00;5.20;;;;;;;-128.00;-1.00;-1.00;102055;1251;1003162;-60
2023/01/23 03:49:16;;;;;;;6.50;5.20;;;;;;;-128.00;-1.00;-1.00;101935;1253;1012976;-64
2023/01/23 03:51:44;;;;;;;7.50;5.10;;;;;;;-128.00;-1.00;-1.00;101812;1251;1003257;-60
2023/01/23 03:54:11;;;;;;;6.70;4.80;;;;;;;-128.00;-1.00;-1.00;101934;1251;1002921;-61
2023/01/23 03:56:38;;;;;;;8.00;5.60;;;;;;;-128.00;-1.00;-1.00;101919;1251;1002757;-61
2023/01/23 03:59:07;;;;;;;7.60;5.30;;;;;;;-128.00;-1.00;-1.00;101856;1258;1002748;-61
2023/01/23 04:01:35;;;;;;;8.70;5.40;;;;;;;-128.00;-1.00;-1.00;101999;1253;1004570;-61
2023/01/23 04:04:02;;;;;;;7.20;5.20;;;;;;;-128.00;-1.00;-1.00;101893;1251;1010859;-60
2023/01/23 04:06:30;;;;;;;6.90;4.80;;;;;;;-128.00;-1.00;-1.00;102008;1253;1002445;-59
2023/01/23 04:08:57;;;;;;;8.30;5.40;;;;;;;-128.00;-1.00;-1.00;101841;1252;1002687;-60
2023/01/23 04:11:25;;;;;;;6.00;4.80;;;;;;;-128.00;-1.00;-1.00;102071;1253;1003567;-60
2023/01/23 04:13:53;;;;;;;7.80;4.90;;;;;;;-128.00;-1.00;-1.00;101841;1251;1005326;-60
2023/01/23 04:16:23;;;;;;;7.30;5.40;;;;;;;-128.00;-1.00;-1.00;101899;1256;1003850;-60
2023/01/23 04:18:51;;;;;;;6.90;4.80;;;;;;;-128.00;-1.00;-1.00;101868;1251;1010599;-60
2023/01/23 04:21:18;;;;;;;7.10;5.50;;;;;;;-128.00;-1.00;-1.00;101909;1254;1003884;-60
2023/01/23 04:23:45;;;;;;;7.40;5.40;;;;;;;-128.00;-1.00;-1.00;101875;1253;1005053;-60
2023/01/23 04:26:14;;;;;;;8.80;5.10;;;;;;;-128.00;-1.00;-1.00;101987;1251;1004143;-59
2023/01/23 04:28:42;;;;;;;9.50;5.60;;;;;;;-128.00;-1.00;-1.00;101935;1258;1010430;-58
2023/01/23 04:31:09;;;;;;;8.00;5.40;;;;;;;-128.00;-1.00;-1.00;101857;1253;1004899;-59
2023/01/23 04:33:37;;;;;;;8.90;5.20;;;;;;;-128.00;-1.00;-1.00;101924;1252;1002868;-59
2023/01/23 04:36:05;;;;;;;6.50;4.80;;;;;;;-128.00;-1.00;-1.00;101911;1251;1002454;-59
2023/01/23 04:38:33;;;;;;;6.70;5.10;;;;;;;-128.00;-1.00;-1.00;101917;1253;1012929;-58
2023/01/23 04:41:20;;;;;;;6.00;4.80;;;;;;;-128.00;-1.00;-1.00;101955;1253;1011920;-59
2023/01/23 04:43:49;;;;;;;7.30;5.40;;;;;;;-128.00;-1.00;-1.00;101873;1251;1013041;-59
2023/01/23 04:46:16;;;;;;;6.60;4.40;;;;;;;-128.00;-1.00;-1.00;101961;1255;1002735;-60
2023/01/23 04:48:53;;;;;;;6.40;4.50;;;;;;;-128.00;-1.00;-1.00;101766;1253;1013599;-58
2023/01/23 04:51:22;;;;;;;8.30;5.10;;;;;;;-128.00;-1.00;-1.00;101828;1253;1004302;-58
2023/01/23 04:53:50;;;;;;;6.40;4.70;;;;;;;-128.00;-1.00;-1.00;101947;1253;1011216;-59
2023/01/23 04:56:17;;;;;;;9.30;5.50;;;;;;;-128.00;-1.00;-1.00;101974;1253;1003043;-60
2023/01/23 04:58:44;;;;;;;7.50;4.40;;;;;;;-128.00;-1.00;-1.00;101799;1251;1002859;-58
2023/01/23 05:01:13;;;;;;;8.00;5.30;;;;;;;-128.00;-1.00;-1.00;102180;1253;1012214;-58
2023/01/23 05:03:40;;;;;;;5.80;4.70;;;;;;;-128.00;-1.00;-1.00;101715;1256;1004577;-60
2023/01/23 05:06:08;;;;;;;6.30;4.80;;;;;;;-128.00;-1.00;-1.00;101766;1251;1003259;-58
2023/01/23 05:08:35;;;;;;;6.20;4.70;;;;;;;-128.00;-1.00;-1.00;101810;1253;1003016;-58
2023/01/23 05:11:11;;;;;;;5.60;4.60;;;;;;;-128.00;-1.00;-1.00;101854;1253;1014204;-59
2023/01/23 05:13:38;;;;;;;6.10;3.90;;;;;;;-128.00;-1.00;-1.00;101800;1251;1002849;-61
2023/01/23 05:16:06;;;;;;;5.80;4.10;;;;;;;-128.00;-1.00;-1.00;101890;1253;1002734;-60
2023/01/23 05:18:49;;;;;;;7.70;4.20;;;;;;;-128.00;-1.00;-1.00;101790;1253;1010632;-61
2023/01/23 05:21:16;;;;;;;6.10;5.00;;;;;;;-128.00;-1.00;-1.00;101977;1257;1003789;-59
2023/01/23 05:23:43;;;;;;;6.20;4.20;;;;;;;-128.00;-1.00;-1.00;101798;1253;1002558;-59
2023/01/23 05:26:12;;;;;;;6.70;4.40;;;;;;;-128.00;-1.00;-1.00;101942;1256;1013233;-61
2023/01/23 05:28:39;;;;;;;6.70;5.10;;;;;;;-128.00;-1.00;-1.00;101992;1256;1002829;-60
2023/01/23 05:31:06;;;;;;;6.20;4.80;;;;;;;-128.00;-1.00;-1.00;102006;1253;1002308;-60
2023/01/23 05:33:39;;;;;;;7.20;4.20;;;;;;;-128.00;-1.00;-1.00;101831;1254;1011593;-59
2023/01/23 05:36:06;;;;;;;8.20;4.60;;;;;;;-128.00;-1.00;-1.00;101847;1253;1002503;-59
2023/01/23 05:38:34;;;;;;;6.10;4.20;;;;;;;-128.00;-1.00;-1.00;101918;1254;1002758;-59
2023/01/23 05:41:01;;;;;;;5.40;4.50;;;;;;;-128.00;-1.00;-1.00;101974;1258;1003703;-59
2023/01/23 05:43:54;;;;;;;5.00;4.10;;;;;;;-128.00;-1.00;-1.00;101974;1256;1010690;-59
2023/01/23 05:46:29;;;;;;;4.80;3.90;;;;;;;-128.00;-1.00;-1.00;101774;1258;1010900;-61
2023/01/23 05:48:56;;;;;;;5.30;4.30;;;;;;;-128.00;-1.00;-1.00;102044;1253;1003110;-61
2023/01/23 05:51:30;;;;;;;5.60;4.00;;;;;;;-128.00;-1.00;-1.00;101886;1256;1002889;-61
2023/01/23 05:54:01;;;;;;;7.10;4.50;;;;;;;-128.00;-1.00;-1.00;101966;1257;1013603;-60
2023/01/23 05:56:29;;;;;;;5.40;3.80;;;;;;;-128.00;-1.00;-1.00;101797;1253;1010255;-58
2023/01/23 05:59:14;;;;;;;5.60;3.90;;;;;;;-128.00;-1.00;-1.00;102147;1253;1010537;-58
2023/01/23 06:02:02;;;;;;;6.00;4.50;;;;;;;-128.00;-1.00;-1.00;102083;1252;1012861;-58
2023/01/23 06:05:05;;;;;;;5.90;4.80;;;;;;;-128.00;-1.00;-1.00;101800;1253;1012643;-59
2023/01/23 06:08:05;;;;;;;6.90;4.80;;;;;;;-128.00;-1.00;-1.00;102027;1253;1013984;-56
2023/01/23 06:10:32;;;;;;;4.70;3.70;;;;;;;-128.00;-1.00;-1.00;101866;1253;1002751;-60
2023/01/23 06:12:59;;;;;;;4.60;4.00;;;;;;;-128.00;-1.00;-1.00;101817;1253;1002313;-58
2023/01/23 06:15:26;;;;;;;5.40;4.30;;;;;;;-128.00;-1.00;-1.00;102081;1253;1003111;-56
2023/01/23 06:17:54;;;;;;;;;;;;;;;-128.00;-1.00;-1.00;101985;1257;1002684;-56
2023/01/23 06:20:22;;;;;;;4.00;3.20;;;;;;;-128.00;-1.00;-1.00;101930;1253;1004068;-56
2023/01/23 06:22:49;;;;;;;4.80;3.80;;;;;;;-128.00;-1.00;-1.00;101916;1251;1002632;-56
2023/01/23 06:25:17;;;;;;;4.60;3.30;;;;;;;-128.00;-1.00;-1.00;101919;1253;1004786;-56
2023/01/23 06:27:44;;;;;;;5.40;3.80;;;;;;;-128.00;-1.00;-1.00;101930;1253;1013478;-59
2023/01/23 06:30:12;;;;;;;5.00;3.70;;;;;;;-128.00;-1.00;-1.00;101809;1253;1002692;-59
2023/01/23 06:32:40;;;;;;;5.10;4.00;;;;;;;-128.00;-1.00;-1.00;102079;1258;1014696;-57
2023/01/23 06:35:08;;;;;;;;;;;;;;;-128.00;-1.00;-1.00;101943;1253;1002798;-56
2023/01/23 06:37:38;;;;;;;4.30;3.70;;;;;;;-128.00;-1.00;-1.00;102007;1253;1011474;-57
2023/01/23 06:40:07;;;;;;;5.10;4.40;;;;;;;-128.00;-1.00;-1.00;101886;1259;1002698;-57
2023/01/23 06:42:34;;;;;;;5.40;4.60;;;;;;;-128.00;-1.00;-1.00;101871;1258;1013266;-57
2023/01/23 06:45:01;;;;;;;3.50;3.20;;;;;;;-128.00;-1.00;-1.00;101812;1256;1002622;-57
2023/01/23 06:47:29;;;;;;;4.80;4.30;;;;;;;-128.00;-1.00;-1.00;101951;1253;1002729;-57
2023/01/23 06:50:00;;;;;;;6.30;4.90;;;;;;;-128.00;-1.00;-1.00;101844;1253;1011144;-58
2023/01/23 06:52:29;;;;;;;5.80;4.70;;;;;;;-128.00;-1.00;-1.00;102006;1253;1015167;-57
2023/01/23 06:54:56;;;;;;;6.10;4.90;;;;;;;-128.00;-1.00;-1.00;101823;1253;1002454;-57
2023/01/23 06:57:23;;;;;;;5.70;4.70;;;;;;;-128.00;-1.00;-1.00;101898;1252;1002837;-58
2023/01/23 06:59:50;;;;;;;6.50;4.90;;;;;;;-128.00;-1.00;-1.00;101862;1253;1002131;-57
2023/01/23 07:02:19;;;;;;;5.90;4.80;;;;;;;-128.00;-1.00;-1.00;101955;1256;1003480;-56
2023/01/23 07:04:50;;;;;;;6.20;4.00;;;;;;;-128.00;-1.00;-1.00;102174;1253;1013794;-56
2023/01/23 07:07:17;;;;;;;5.30;4.20;;;;;;;-128.00;-1.00;-1.00;102082;1252;1003697;-57
2023/01/23 07:09:44;;;;;;;5.80;5.00;;;;;;;-128.00;-1.00;-1.00;101897;1253;1002708;-56
2023/01/23 07:12:20;;;;;;;5.30;4.60;;;;;;;-128.00;-1.00;-1.00;101710;1253;1011992;-57
2023/01/23 07:14:48;;;;;;;5.80;4.50;;;;;;;-128.00;-1.00;-1.00;101957;1253;1010710;-56
2023/01/23 07:17:20;;;;;;;5.00;3.60;;;;;;;-128.00;-1.00;-1.00;101834;1252;1014814;-56
2023/01/23 07:19:47;;;;;;;5.10;4.00;;;;;;;-128.00;-1.00;-1.00;102036;1253;1002869;-59
2023/01/23 07:22:17;;;;;;;4.70;3.90;;;;;;;-128.00;-1.00;-1.00;101863;1253;1013140;-61
2023/01/23 07:24:44;;;;;;;4.80;4.00;;;;;;;-128.00;-1.00;-1.00;101798;1253;1013103;-58
2023/01/23 07:27:11;;;;;;;4.70;4.20;;;;;;;-128.00;-1.00;-1.00;101954;1253;1004638;-58
2023/01/23 07:29:39;;;;;;;4.30;3.60;;;;;;;-128.00;-1.00;-1.00;101885;1253;1002899;-58
2023/01/23 07:32:06;;;;;;;4.40;4.00;;;;;;;-128.00;-1.00;-1.00;101898;1253;1003384;-56
2023/01/23 07:34:36;;;;;;;4.90;4.30;;;;;;;-128.00;-1.00;-1.00;101845;1252;1013424;-56
2023/01/23 07:37:04;;;;;;;4.40;3.80;;;;;;;-128.00;-1.00;-1.00;101762;1253;1002622;-56
2023/01/23 07:39:31;;;;;;;4.90;3.80;;;;;;;-128.00;-1.00;-1.00;101873;1253;1003277;-57
2023/01/23 07:41:58;;;;;;;4.90;3.90;;;;;;;-128.00;-1.00;-1.00;101887;1253;1002360;-57
2023/01/23 13:57:39;;;;;;;10.00;6.60;;;;;;;0.01;100.00;101623.52;102523;1295;600751;-56
2023/01/23 14:00:21;;;;;;;14.70;9.10;;;;;;;0.83;100.00;101642.95;103356;1276;61862;-56
2023/01/23 14:06:09;;;;;;;16.40;11.00;;;;;;;1.35;100.00;101628.69;102465;1294;72531;-56
2023/01/23 14:08:52;;;;;;;16.90;12.00;;;;;;;1.56;100.00;101620.94;101894;1303;70574;-56
2023/01/23 14:11:37;;;;;;;21.80;12.60;;;;;;;1.70;100.00;101621.29;101402;1293;137435;-57
2023/01/23 14:17:17;;;;;;;16.10;11.10;;;;;;;1.87;100.00;101620.15;100488;1302;61708;-58
2023/01/23 14:20:16;;;;;;;16.60;10.40;;;;;;;1.95;100.00;101619.13;100543;1304;74289;-58
2023/01/23 14:23:18;;;;;;;15.00;11.30;;;;;;;2.01;100.00;101618.94;100420;1305;73201;-57
2023/01/23 14:26:00;;;;;;;13.50;10.20;;;;;;;2.07;100.00;101628.05;100364;1322;74390;-57
2023/01/23 14:28:57;;;;;;;13.10;10.20;;;;;;;2.11;100.00;101624.16;100774;1301;64707;-57
2023/01/23 14:31:40;;;;;;;16.40;11.30;;;;;;;2.19;100.00;101627.48;101146;1294;60936;-58
2023/01/23 14:34:15;;;;;;;13.80;9.70;;;;;;;2.26;100.00;101627.27;101453;1289;74773;-57
2023/01/23 14:37:05;;;;;;;15.60;10.60;;;;;;;2.32;100.00;101630.36;101323;1290;71348;-58
2023/01/23 14:39:33;;;;;;;12.40;9.20;;;;;;;2.36;100.00;101631.16;102451;1274;74802;-57
2023/01/23 14:42:02;;;;;;;11.50;9.30;;;;;;;2.45;100.00;101636.71;102917;1289;62505;-57
2023/01/23 14:44:41;;;;;;;11.70;8.90;;;;;;;2.52;100.00;101635.48;103461;1269;61168;-58
2023/01/23 14:47:17;;;;;;;10.20;7.80;;;;;;;2.55;100.00;101631.04;103427;1270;74875;-59
2023/01/23 14:49:44;;;;;;;11.90;8.30;;;;;;;2.56;100.00;101632.98;103595;1266;70510;-58
2023/01/23 14:52:27;;;;;;;11.50;7.40;;;;;;;2.56;100.00;101633.48;104212;1254;74609;-58
2023/01/23 14:54:55;;;;;;;9.90;7.40;;;;;;;2.59;100.00;101633.05;104327;1267;61816;-59
2023/01/23 14:57:27;;;;;;;11.40;7.70;;;;;;;2.64;100.00;101632.98;104609;1257;60866;-58
2023/01/23 14:59:57;;;;;;;11.20;7.70;;;;;;;2.70;100.00;101632.77;104349;1254;76445;-58
2023/01/23 15:02:31;;;;;;;12.10;8.20;;;;;;;2.74;100.00;101631.98;104713;1258;70900;-58
2023/01/23 15:05:21;;;;;;;12.40;8.00;;;;;;;2.77;100.00;101633.23;104605;1254;73985;-59
2023/01/23 15:08:03;;;;;;;11.30;8.20;;;;;;;2.78;100.00;101637.42;104412;1254;61763;-58
2023/01/23 15:10:40;;;;;;;12.60;9.30;;;;;;;2.79;100.00;101638.49;104420;1256;61024;-58
2023/01/23 15:13:12;;;;;;;10.60;7.60;;;;;;;2.82;100.00;101643.05;104311;1255;74782;-59
2023/01/23 15:15:44;;;;;;;11.90;8.00;;;;;;;2.78;100.00;101639.52;104256;1273;71371;-60
2023/01/23 15:18:20;;;;;;;11.20;8.50;;;;;;;2.78;100.00;101641.23;104322;1271;73510;-59
2023/01/23 15:21:04;;;;;;;12.10;7.90;;;;;;;2.83;100.00;101644.63;104372;1254;61580;-58
2023/01/23 15:23:36;;;;;;;14.10;8.30;;;;;;;2.89;100.00;101648.05;104389;1271;61205;-62
2023/01/23 15:26:23;;;;;;;11.70;8.00;;;;;;;2.92;100.00;101646.55;104213;1272;73547;-58
2023/01/23 15:28:54;;;;;;;11.10;7.70;;;;;;;2.92;100.00;101651.92;104311;1260;71123;-60
2023/01/23 15:31:36;;;;;;;13.70;7.20;;;;;;;2.91;100.00;101652.77;105005;1256;74272;-58
2023/01/23 15:34:14;;;;;;;12.50;8.20;;;;;;;2.90;100.00;101655.71;104518;1259;61073;-60
2023/01/23 15:36:48;;;;;;;12.80;8.70;;;;;;;2.98;100.00;101659.30;104522;1252;60921;-66
2023/01/23 15:39:28;;;;;;;12.90;8.40;;;;;;;2.94;100.00;101660.96;104719;1254;74367;-57
2023/01/23 15:42:23;;;;;;;16.00;9.60;;;;;;;2.88;100.00;101660.68;104734;1256;70600;-59
2023/01/23 15:44:51;;;;;;;13.50;9.10;;;;;;;2.88;100.00;101662.58;105025;1253;73227;-59
2023/01/23 15:47:20;;;;;;;12.30;8.40;;;;;;;2.91;100.00;101670.78;104482;1253;61909;-58
2023/01/23 15:49:48;;;;;;;16.20;9.00;;;;;;;2.86;100.00;101672.41;104546;1259;61257;-59
2023/01/23 15:52:20;;;;;;;13.40;9.20;;;;;;;2.82;100.00;101674.76;104375;1264;74003;-59
2023/01/23 15:54:53;;;;;;;13.40;8.90;;;;;;;2.89;100.00;101678.36;104756;1256;71686;-59
2023/01/23 15:57:22;;;;;;;14.80;9.60;;;;;;;2.92;100.00;101677.91;104843;1254;73680;-58
2023/01/23 15:59:51;;;;;;;13.50;9.50;;;;;;;2.96;100.00;101676.95;104731;1255;60866;-58
2023/01/23 16:02:20;;;;;;;16.20;10.40;;;;;;;2.94;100.00;101677.79;104463;1252;61356;-59
2023/01/23 16:05:00;;;;;;;14.70;10.50;;;;;;;2.98;100.00;101678.20;104296;1257;74458;-59
2023/01/23 16:07:39;;;;;;;18.50;11.50;;;;;;;3.00;100.00;101674.62;104233;1257;70363;-58
2023/01/23 21:52:47;;;;;;;13.60;8.90;;;;;;;0.46;100.00;101671.20;103637;1272;60459;-62
2023/01/23 21:55:16;;;;;;;19.20;10.00;;;;;;;0.69;100.00;101662.92;103564;1269;59512;-62
2023/01/23 21:57:44;;;;;;;13.20;9.90;;;;;;;0.86;100.00;101660.30;103551;1287;71391;-62
2023/01/23 22:03:00;;;;;;;;;;;;;;;1.18;100.00;101654.49;103316;1275;147783;-62
